Time;durP1;ratioP1;P1;durP2;ratioP2;P2;SDS_P1;SDS_P2;PMS_P1;PMS_P2;Temp;Humidity;BMP_temperature;BMP_pressure;BME280_temperature;BME280_humidity;BME280_pressure;Samples;Min_cycle;Max_cycle;Signal;HPM_P1;HPM_P2
2023/02/08 00:00:25;;;;;;;2.60;2.40;;;;;;;;;;7432689;19;20137;-91
2023/02/08 00:02:52;;;;;;;3.57;2.77;;;;;;;;;;7431019;19;20196;-93
2023/02/08 00:05:21;;;;;;;2.67;2.43;;;;;;;;;;7432565;19;20141;-91
2023/02/08 00:07:48;;;;;;;1.87;1.77;;;;;;;;;;7432675;19;20159;-95
2023/02/08 00:10:14;;;;;;;3.30;3.00;;;;;;;;;;7432576;19;20144;-92
2023/02/08 00:12:41;;;;;;;2.90;1.90;;;;;;;;;;7430578;19;20509;-93
2023/02/08 00:15:08;;;;;;;2.17;2.07;;;;;;;;;;7428159;19;20600;-91
2023/02/08 00:17:34;;;;;;;2.00;1.90;;;;;;;;;;7432537;19;20137;-94
2023/02/08 00:20:01;;;;;;;1.70;1.60;;;;;;;;;;7430453;19;20207;-93
2023/02/08 00:22:27;;;;;;;2.10;1.90;;;;;;;;;;7431619;19;20171;-92
2023/02/08 00:24:54;;;;;;;1.83;1.73;;;;;;;;;;7431488;19;20163;-93
2023/02/08 00:27:20;;;;;;;2.03;1.87;;;;;;;;;;7430592;19;20152;-93
2023/02/08 00:29:47;;;;;;;1.57;1.47;;;;;;;;;;7430180;19;20129;-92
2023/02/08 00:32:13;;;;;;;3.93;2.57;;;;;;;;;;7431430;19;20129;-92
2023/02/08 00:34:40;;;;;;;3.07;1.97;;;;;;;;;;7432205;19;20133;-92
2023/02/08 00:37:06;;;;;;;1.97;1.83;;;;;;;;;;7430462;19;20762;-92
2023/02/08 00:39:33;;;;;;;1.90;1.73;;;;;;;;;;7431518;19;20129;-91
2023/02/08 00:41:59;;;;;;;2.93;2.73;;;;;;;;;;7430198;19;20153;-91
2023/02/08 00:44:26;;;;;;;1.40;1.30;;;;;;;;;;7429363;19;20145;-92
2023/02/08 00:46:53;;;;;;;1.40;1.33;;;;;;;;;;7429685;19;20610;-93
2023/02/08 00:49:20;;;;;;;3.07;2.10;;;;;;;;;;7430223;19;20177;-94
2023/02/08 00:51:46;;;;;;;2.83;2.60;;;;;;;;;;7429876;19;20160;-94
2023/02/08 00:54:14;;;;;;;1.93;1.83;;;;;;;;;;7428638;19;20172;-93
2023/02/08 00:56:41;;;;;;;1.50;1.40;;;;;;;;;;7429871;19;20141;-92
2023/02/08 00:59:07;;;;;;;2.13;1.70;;;;;;;;;;7430541;19;20165;-93
2023/02/08 01:01:34;;;;;;;2.67;2.50;;;;;;;;;;7430832;19;20141;-94
2023/02/08 01:04:01;;;;;;;2.57;2.13;;;;;;;;;;7429585;19;20161;-93
2023/02/08 01:06:27;;;;;;;1.37;1.27;;;;;;;;;;7430945;19;20151;-94
2023/02/08 01:08:54;;;;;;;8.60;1.83;;;;;;;;;;7429735;19;20145;-93
2023/02/08 01:11:23;;;;;;;2.90;2.27;;;;;;;;;;7425565;19;20125;-93
2023/02/08 01:13:56;;;;;;;1.30;1.20;;;;;;;;;;7424900;19;20196;-91
2023/02/08 01:16:25;;;;;;;1.30;1.30;;;;;;;;;;7427982;19;20142;-91
2023/02/08 01:18:55;;;;;;;1.90;1.80;;;;;;;;;;7428724;19;20157;-93
2023/02/08 01:21:25;;;;;;;1.77;1.63;;;;;;;;;;7429584;19;20184;-93
2023/02/08 01:23:51;;;;;;;1.60;1.50;;;;;;;;;;7429157;19;20169;-92
2023/02/08 01:26:19;;;;;;;1.60;1.23;;;;;;;;;;7429617;19;20167;-92
2023/02/08 01:28:47;;;;;;;1.80;1.47;;;;;;;;;;7429278;19;20133;-94
2023/02/08 01:31:16;;;;;;;3.17;2.00;;;;;;;;;;7428932;19;20141;-93
2023/02/08 01:33:43;;;;;;;2.33;1.40;;;;;;;;;;7427893;19;20152;-94
2023/02/08 01:36:10;;;;;;;1.47;1.37;;;;;;;;;;7427372;19;20156;-92
2023/02/08 01:38:37;;;;;;;6.77;2.10;;;;;;;;;;7428927;19;20582;-93
2023/02/08 01:41:05;;;;;;;1.53;1.43;;;;;;;;;;7428157;19;20129;-94
2023/02/08 01:43:34;;;;;;;1.73;1.50;;;;;;;;;;7427365;19;20174;-91
2023/02/08 01:46:01;;;;;;;3.20;1.87;;;;;;;;;;7428212;19;20196;-93
2023/02/08 01:48:35;;;;;;;2.20;1.43;;;;;;;;;;7427267;19;20138;-93
2023/02/08 01:51:17;;;;;;;2.07;1.53;;;;;;;;;;7427662;19;20143;-93
2023/02/08 01:53:44;;;;;;;1.87;1.30;;;;;;;;;;7427518;19;20191;-93
2023/02/08 01:56:17;;;;;;;2.00;1.90;;;;;;;;;;7425858;19;20160;-92
2023/02/08 01:58:51;;;;;;;2.43;1.80;;;;;;;;;;7429372;19;20125;-93
2023/02/08 02:01:19;;;;;;;4.10;1.63;;;;;;;;;;7427701;19;20144;-93
2023/02/08 02:03:45;;;;;;;1.43;1.33;;;;;;;;;;7427183;19;20161;-93
2023/02/08 02:06:15;;;;;;;1.27;1.13;;;;;;;;;;7427674;19;20152;-92
2023/02/08 02:08:50;;;;;;;1.50;1.23;;;;;;;;;;7425967;19;20140;-93
2023/02/08 02:11:17;;;;;;;1.57;1.47;;;;;;;;;;7428752;19;20181;-91
2023/02/08 02:13:44;;;;;;;1.07;1.07;;;;;;;;;;7426115;19;20176;-94
2023/02/08 02:16:10;;;;;;;1.67;1.57;;;;;;;;;;7427852;19;20129;-93
2023/02/08 02:18:37;;;;;;;0.93;0.93;;;;;;;;;;7428964;19;20121;-93
2023/02/08 02:21:22;;;;;;;1.90;1.80;;;;;;;;;;7427693;19;20168;-91
2023/02/08 02:24:10;;;;;;;5.43;2.03;;;;;;;;;;7425448;19;20160;-93
2023/02/08 02:26:51;;;;;;;4.50;1.63;;;;;;;;;;7428720;19;20145;-92
2023/02/08 02:29:42;;;;;;;1.90;1.80;;;;;;;;;;7435133;19;20137;-93
2023/02/08 02:32:24;;;;;;;4.50;1.87;;;;;;;;;;7434865;19;20139;-94
2023/02/08 02:35:15;;;;;;;5.33;1.07;;;;;;;;;;7435467;19;20411;-92
2023/02/08 02:38:00;;;;;;;0.83;0.83;;;;;;;;;;7434203;19;20137;-94
2023/02/08 02:40:37;;;;;;;1.13;1.13;;;;;;;;;;7435533;19;20132;-92
2023/02/08 02:46:11;;;;;;;1.13;1.10;;;;;;;;;;7435417;19;20152;-94
2023/02/08 02:49:01;;;;;;;3.80;1.87;;;;;;;;;;7434688;19;20148;-93
2023/02/08 02:51:52;;;;;;;1.60;1.50;;;;;;;;;;7434226;19;20141;-93
2023/02/08 02:54:34;;;;;;;1.23;1.23;;;;;;;;;;7431839;19;20141;-93
2023/02/08 02:57:06;;;;;;;1.90;1.37;;;;;;;;;;7431281;19;20125;-93
2023/02/08 02:59:34;;;;;;;1.50;1.40;;;;;;;;;;7434146;19;20133;-92
2023/02/08 03:02:02;;;;;;;1.63;1.53;;;;;;;;;;7432870;19;20133;-92
2023/02/08 03:04:31;;;;;;;1.57;0.90;;;;;;;;;;7431515;19;20145;-92
2023/02/08 03:07:06;;;;;;;0.83;0.83;;;;;;;;;;7432036;19;20172;-91
2023/02/08 03:10:18;;;;;;;1.37;1.27;;;;;;;;;;7432905;19;20160;-92
2023/02/08 03:12:47;;;;;;;1.17;1.17;;;;;;;;;;7429952;19;20195;-91
2023/02/08 03:15:45;;;;;;;1.93;1.57;;;;;;;;;;7431358;19;20140;-92
2023/02/08 03:18:20;;;;;;;1.97;1.60;;;;;;;;;;7430305;19;20149;-92
2023/02/08 03:20:56;;;;;;;1.13;1.10;;;;;;;;;;7432465;19;20141;-93
2023/02/08 03:23:30;;;;;;;1.40;1.00;;;;;;;;;;7428960;19;20168;-92
2023/02/08 03:26:14;;;;;;;3.53;2.47;;;;;;;;;;7430672;19;20144;-91
2023/02/08 03:28:58;;;;;;;1.60;1.50;;;;;;;;;;7430829;19;20730;-91
2023/02/08 03:31:29;;;;;;;1.63;1.53;;;;;;;;;;7430542;19;20149;-91
2023/02/08 03:34:01;;;;;;;1.23;1.20;;;;;;;;;;7427775;19;20184;-92
2023/02/08 03:36:40;;;;;;;1.57;1.53;;;;;;;;;;7431958;19;20149;-92
2023/02/08 03:39:10;;;;;;;3.57;1.30;;;;;;;;;;7430019;19;20125;-93
2023/02/08 03:41:39;;;;;;;1.17;0.90;;;;;;;;;;7431821;19;20129;-92
2023/02/08 03:44:12;;;;;;;0.80;0.70;;;;;;;;;;7428595;19;20165;-91
2023/02/08 03:46:42;;;;;;;2.07;1.40;;;;;;;;;;7431773;19;20125;-92
2023/02/08 03:49:14;;;;;;;1.93;1.83;;;;;;;;;;7431457;19;20137;-92
2023/02/08 03:51:42;;;;;;;2.60;1.60;;;;;;;;;;7431169;19;20141;-92
2023/02/08 03:54:19;;;;;;;5.90;1.93;;;;;;;;;;7429173;19;20182;-93
2023/02/08 03:57:03;;;;;;;1.13;1.13;;;;;;;;;;7430740;19;20137;-89
2023/02/08 03:59:33;;;;;;;1.67;1.57;;;;;;;;;;7432178;19;20161;-93
2023/02/08 04:02:06;;;;;;;2.30;1.20;;;;;;;;;;7431788;19;20137;-92
2023/02/08 04:04:37;;;;;;;0.50;0.50;;;;;;;;;;7429410;19;20165;-93
2023/02/08 04:07:04;;;;;;;3.00;1.97;;;;;;;;;;7430594;19;20129;-91
2023/02/08 04:09:30;;;;;;;1.23;1.23;;;;;;;;;;7429277;19;20160;-92
2023/02/08 04:11:57;;;;;;;0.70;0.70;;;;;;;;;;7431316;19;20159;-92
2023/02/08 04:14:24;;;;;;;2.60;1.67;;;;;;;;;;7428921;19;20180;-91
2023/02/08 04:16:50;;;;;;;1.60;1.50;;;;;;;;;;7430386;19;20248;-95
2023/02/08 04:19:17;;;;;;;1.50;1.33;;;;;;;;;;7430251;19;20141;-93
2023/02/08 04:21:44;;;;;;;1.00;1.00;;;;;;;;;;7432189;19;20169;-91
2023/02/08 04:24:10;;;;;;;1.33;1.23;;;;;;;;;;7428432;19;20177;-93
2023/02/08 04:26:36;;;;;;;1.67;1.40;;;;;;;;;;7431084;19;20174;-93
2023/02/08 04:29:03;;;;;;;1.27;1.27;;;;;;;;;;7430474;19;20144;-92
2023/02/08 04:31:30;;;;;;;2.23;2.13;;;;;;;;;;7430796;19;20161;-92
2023/02/08 04:33:56;;;;;;;1.07;1.07;;;;;;;;;;7429530;19;20160;-93
2023/02/08 04:36:23;;;;;;;2.30;2.10;;;;;;;;;;7431003;19;20141;-93
2023/02/08 04:38:52;;;;;;;0.90;0.90;;;;;;;;;;7424621;19;20200;-90
2023/02/08 04:41:19;;;;;;;1.90;1.63;;;;;;;;;;7425322;19;20149;-89
2023/02/08 04:43:46;;;;;;;3.60;1.63;;;;;;;;;;7422140;19;20168;-92
2023/02/08 04:46:12;;;;;;;2.83;1.47;;;;;;;;;;7425297;19;20133;-92
2023/02/08 04:48:39;;;;;;;2.43;2.27;;;;;;;;;;7425165;19;20136;-92
2023/02/08 04:51:06;;;;;;;0.80;0.80;;;;;;;;;;7423664;19;20141;-90
2023/02/08 04:53:32;;;;;;;2.00;1.77;;;;;;;;;;7424797;19;20179;-91
2023/02/08 04:55:59;;;;;;;1.27;1.27;;;;;;;;;;7425355;19;20148;-91
2023/02/08 04:58:25;;;;;;;0.93;0.93;;;;;;;;;;7425311;19;20129;-92
2023/02/08 05:00:52;;;;;;;2.50;2.17;;;;;;;;;;7430025;19;20160;-94
2023/02/08 05:03:19;;;;;;;3.27;1.43;;;;;;;;;;7428690;19;20234;-94
2023/02/08 05:05:45;;;;;;;1.20;1.20;;;;;;;;;;7428478;19;20133;-91
2023/02/08 05:08:12;;;;;;;2.30;2.17;;;;;;;;;;7429733;19;20133;-92
2023/02/08 05:10:43;;;;;;;1.23;1.13;;;;;;;;;;7429943;19;20147;-93
2023/02/08 05:13:09;;;;;;;1.10;1.10;;;;;;;;;;7427930;19;20199;-92
2023/02/08 05:15:36;;;;;;;2.13;1.83;;;;;;;;;;7429597;19;20165;-92
2023/02/08 05:18:03;;;;;;;1.00;1.00;;;;;;;;;;7424232;19;20144;-92
2023/02/08 05:20:29;;;;;;;1.60;1.30;;;;;;;;;;7428116;19;20133;-92
2023/02/08 05:22:56;;;;;;;2.30;1.23;;;;;;;;;;7428857;19;20149;-92
2023/02/08 05:25:22;;;;;;;2.23;1.80;;;;;;;;;;7429056;19;20129;-92
2023/02/08 05:27:49;;;;;;;1.37;1.27;;;;;;;;;;7429454;19;20136;-92
2023/02/08 05:30:16;;;;;;;1.77;1.67;;;;;;;;;;7428497;19;20537;-91
2023/02/08 05:32:42;;;;;;;1.57;1.30;;;;;;;;;;7428660;19;20164;-91
2023/02/08 05:35:09;;;;;;;4.10;3.27;;;;;;;;;;7428692;19;20133;-92
2023/02/08 05:37:35;;;;;;;1.67;1.57;;;;;;;;;;7428042;19;20137;-92
2023/02/08 05:40:02;;;;;;;1.87;1.77;;;;;;;;;;7427030;19;20133;-92
2023/02/08 05:42:29;;;;;;;4.87;1.63;;;;;;;;;;7428216;19;20172;-92
2023/02/08 05:44:55;;;;;;;1.97;1.87;;;;;;;;;;7427602;19;20125;-92
2023/02/08 05:47:22;;;;;;;1.53;1.43;;;;;;;;;;7428468;19;20145;-93
2023/02/08 05:49:48;;;;;;;0.97;0.97;;;;;;;;;;7428252;19;20144;-93
2023/02/08 05:52:15;;;;;;;0.90;0.90;;;;;;;;;;7427248;19;20148;-92
2023/02/08 05:54:41;;;;;;;1.53;1.43;;;;;;;;;;7428063;19;20169;-93
2023/02/08 05:57:08;;;;;;;1.93;1.83;;;;;;;;;;7423604;19;20137;-92
2023/02/08 05:59:34;;;;;;;2.00;1.40;;;;;;;;;;7425086;19;20145;-92
2023/02/08 06:02:01;;;;;;;1.03;1.03;;;;;;;;;;7433890;19;20179;-92
2023/02/08 06:04:27;;;;;;;1.80;1.20;;;;;;;;;;7439434;19;20156;-91
2023/02/08 06:06:54;;;;;;;1.20;1.13;;;;;;;;;;7440694;19;20137;-92
2023/02/08 06:09:20;;;;;;;2.13;2.03;;;;;;;;;;7441763;19;20148;-92
2023/02/08 06:11:47;;;;;;;1.17;1.07;;;;;;;;;;7442670;19;20147;-92
2023/02/08 06:14:14;;;;;;;1.93;1.77;;;;;;;;;;7440948;19;20203;-93
2023/02/08 06:16:40;;;;;;;1.27;1.17;;;;;;;;;;7441208;19;20141;-91
2023/02/08 06:19:23;;;;;;;1.33;1.23;;;;;;;;;;7442400;19;20128;-93
2023/02/08 12:49:51;;;;;;;1.03;1.00;;;;;;;;;;7400473;19;20168;-88
2023/02/08 12:52:33;;;;;;;1.60;1.53;;;;;;;;;;7379127;19;20137;-86
2023/02/08 12:55:04;;;;;;;2.20;2.10;;;;;;;;;;7398744;19;20140;-89
2023/02/08 12:57:31;;;;;;;3.60;2.23;;;;;;;;;;7393731;19;20140;-87
2023/02/08 13:00:01;;;;;;;4.60;1.80;;;;;;;;;;7394370;19;20165;-89
2023/02/08 13:02:43;;;;;;;1.60;1.50;;;;;;;;;;7389752;19;20155;-90
2023/02/08 13:05:16;;;;;;;1.20;1.10;;;;;;;;;;7389754;19;20612;-91
2023/02/08 13:07:45;;;;;;;1.90;0.83;;;;;;;;;;7389294;19;20168;-90
2023/02/08 13:10:38;;;;;;;1.63;1.53;;;;;;;;;;7397733;19;20167;-91
2023/02/08 13:13:21;;;;;;;0.90;0.90;;;;;;;;;;7402511;19;20157;-92
2023/02/08 13:15:55;;;;;;;1.23;0.97;;;;;;;;;;7392708;19;20160;-89
2023/02/08 13:18:36;;;;;;;0.70;0.70;;;;;;;;;;7404278;19;20154;-90
2023/02/08 13:21:13;;;;;;;1.70;0.60;;;;;;;;;;7400077;19;20158;-91
2023/02/08 13:23:42;;;;;;;1.20;1.20;;;;;;;;;;7394726;19;20652;-92
2023/02/08 13:26:26;;;;;;;2.10;1.40;;;;;;;;;;7407688;19;20605;-93
2023/02/08 13:28:55;;;;;;;1.90;1.80;;;;;;;;;;7392132;19;20132;-92
2023/02/08 13:31:29;;;;;;;1.90;1.80;;;;;;;;;;7391211;19;20172;-91
2023/02/08 13:33:59;;;;;;;2.53;2.43;;;;;;;;;;7392389;19;20765;-90
2023/02/08 13:36:35;;;;;;;4.87;2.00;;;;;;;;;;7390305;19;20147;-91
2023/02/08 13:39:04;;;;;;;3.17;2.03;;;;;;;;;;7382625;19;20245;-91
2023/02/08 13:41:32;;;;;;;2.07;1.97;;;;;;;;;;7393055;19;20137;-91
2023/02/08 13:44:07;;;;;;;1.73;1.63;;;;;;;;;;7392200;19;20164;-88
2023/02/08 13:46:51;;;;;;;1.77;1.67;;;;;;;;;;7391854;19;20167;-88
2023/02/08 13:49:51;;;;;;;1.08;1.08;;;;;;;;;;7391293;19;20133;-87
2023/02/08 13:52:32;;;;;;;3.15;1.58;;;;;;;;;;7386146;19;20632;-88
2023/02/08 13:55:29;;;;;;;1.52;1.52;;;;;;;;;;7390823;19;20158;-89
2023/02/08 13:58:20;;;;;;;2.00;1.65;;;;;;;;;;7388356;19;20137;-88
2023/02/08 14:00:53;;;;;;;1.75;1.65;;;;;;;;;;7387878;19;20176;-85
2023/02/08 14:03:22;;;;;;;1.45;1.35;;;;;;;;;;7382118;19;20172;-89
2023/02/08 14:05:56;;;;;;;2.63;2.28;;;;;;;;;;7389398;19;20643;-89
2023/02/08 14:08:23;;;;;;;1.42;1.33;;;;;;;;;;7384750;19;20128;-83
2023/02/08 14:11:03;;;;;;;1.63;1.52;;;;;;;;;;7386540;19;20145;-90
2023/02/08 14:13:43;;;;;;;1.90;1.80;;;;;;;;;;7382009;19;20183;-87
2023/02/08 14:16:30;;;;;;;2.38;1.85;;;;;;;;;;7387623;19;20145;-89
2023/02/08 14:18:58;;;;;;;8.70;1.88;;;;;;;;;;7387826;19;20208;-88
2023/02/08 14:21:30;;;;;;;2.70;1.67;;;;;;;;;;7388764;19;20160;-88
2023/02/08 14:24:16;;;;;;;1.70;1.50;;;;;;;;;;7385529;19;20216;-89
2023/02/08 14:26:43;;;;;;;0.93;0.93;;;;;;;;;;7391411;19;20167;-87
2023/02/08 14:29:19;;;;;;;1.53;1.43;;;;;;;;;;7391569;19;20145;-89
2023/02/08 14:31:47;;;;;;;3.80;1.27;;;;;;;;;;7391972;19;20677;-90
2023/02/08 14:34:37;;;;;;;1.00;1.00;;;;;;;;;;7388017;19;20152;-88
2023/02/08 14:37:25;;;;;;;2.53;2.33;;;;;;;;;;7397852;19;20133;-91
2023/02/08 14:40:19;;;;;;;0.80;0.80;;;;;;;;;;7385318;19;20133;-93
2023/02/08 14:43:01;;;;;;;0.40;0.40;;;;;;;;;;7386298;19;20179;-93
2023/02/08 14:45:32;;;;;;;0.63;0.63;;;;;;;;;;7389276;19;20137;-90
2023/02/08 14:48:00;;;;;;;0.60;0.40;;;;;;;;;;7386775;19;20168;-93
2023/02/08 14:50:30;;;;;;;0.80;0.80;;;;;;;;;;7392935;19;20188;-90
2023/02/08 14:53:14;;;;;;;0.60;0.60;;;;;;;;;;7389913;19;20165;-91
2023/02/08 14:56:29;;;;;;;0.30;0.30;;;;;;;;;;7394322;19;20176;-91
2023/02/08 14:59:06;;;;;;;0.30;0.30;;;;;;;;;;7387949;19;20762;-89
2023/02/08 15:01:45;;;;;;;0.40;0.40;;;;;;;;;;7390891;19;20152;-91
2023/02/08 15:04:13;;;;;;;1.00;1.00;;;;;;;;;;7392102;19;20169;-91
2023/02/08 15:07:09;;;;;;;1.30;1.20;;;;;;;;;;7394472;19;20179;-93
2023/02/08 15:09:38;;;;;;;4.57;2.70;;;;;;;;;;7390696;19;20156;-91
2023/02/08 15:12:27;;;;;;;1.17;1.17;;;;;;;;;;7383398;19;20133;-89
2023/02/08 15:14:55;;;;;;;1.37;1.27;;;;;;;;;;7391766;19;20882;-92
2023/02/08 15:17:44;;;;;;;1.80;1.70;;;;;;;;;;7392795;19;20168;-92
2023/02/08 15:20:25;;;;;;;1.80;1.70;;;;;;;;;;7391000;19;20164;-90
2023/02/08 15:23:04;;;;;;;2.17;2.07;;;;;;;;;;7389501;19;20165;-89
2023/02/08 15:25:33;;;;;;;2.67;2.27;;;;;;;;;;7392562;19;20151;-90
2023/02/08 15:28:15;;;;;;;1.37;1.30;;;;;;;;;;7395341;19;20160;-92
2023/02/08 15:30:42;;;;;;;3.13;1.73;;;;;;;;;;7402473;19;20193;-90
2023/02/08 15:33:16;;;;;;;4.97;1.80;;;;;;;;;;7395505;19;20213;-91
2023/02/08 15:35:44;;;;;;;2.00;1.83;;;;;;;;;;7382997;19;20609;-91
2023/02/08 15:38:16;;;;;;;1.97;1.77;;;;;;;;;;7393606;19;20133;-90
2023/02/08 15:40:43;;;;;;;2.43;1.77;;;;;;;;;;7391908;19;20141;-90
2023/02/08 15:43:12;;;;;;;2.40;2.20;;;;;;;;;;7393172;19;20196;-93
2023/02/08 15:45:38;;;;;;;2.40;2.23;;;;;;;;;;7397090;19;20149;-89
2023/02/08 15:48:05;;;;;;;1.87;1.77;;;;;;;;;;7399796;19;20152;-93
2023/02/08 15:50:32;;;;;;;2.27;2.07;;;;;;;;;;7396032;19;20156;-90
2023/02/08 15:53:00;;;;;;;1.83;1.73;;;;;;;;;;7399561;19;20184;-93
2023/02/08 15:55:31;;;;;;;2.07;1.87;;;;;;;;;;7398883;19;20148;-90
2023/02/08 15:58:06;;;;;;;2.87;2.67;;;;;;;;;;7399154;19;20144;-93
2023/02/08 16:00:35;;;;;;;3.03;2.03;;;;;;;;;;7399376;19;20136;-92
2023/02/08 16:03:07;;;;;;;1.90;1.80;;;;;;;;;;7399573;19;20240;-91
2023/02/08 16:05:34;;;;;;;3.53;3.23;;;;;;;;;;7400886;19;20153;-93
2023/02/08 16:08:02;;;;;;;3.07;2.87;;;;;;;;;;7403145;19;20137;-94
2023/02/08 16:10:45;;;;;;;1.57;1.47;;;;;;;;;;7403735;19;20597;-93
2023/02/08 16:13:20;;;;;;;3.43;3.13;;;;;;;;;;7402071;19;20180;-93
2023/02/08 16:15:50;;;;;;;2.47;2.27;;;;;;;;;;7402304;19;20156;-92
2023/02/08 16:18:39;;;;;;;1.73;1.60;;;;;;;;;;7403717;19;20144;-92
2023/02/08 16:21:23;;;;;;;4.40;3.03;;;;;;;;;;7405542;19;20144;-93
2023/02/08 16:23:55;;;;;;;9.30;4.20;;;;;;;;;;7409485;19;20169;-93
2023/02/08 16:26:59;;;;;;;4.07;2.60;;;;;;;;;;7414368;19;20140;-93
2023/02/08 16:29:29;;;;;;;1.60;1.50;;;;;;;;;;7402983;19;20602;-92
2023/02/08 16:32:02;;;;;;;6.90;2.33;;;;;;;;;;7406863;19;20164;-93
2023/02/08 16:34:31;;;;;;;2.63;2.43;;;;;;;;;;7405991;19;20176;-93
2023/02/08 16:36:58;;;;;;;2.53;2.33;;;;;;;;;;7403857;19;20141;-92
2023/02/08 16:39:45;;;;;;;3.60;2.50;;;;;;;;;;7397488;19;20145;-92
2023/02/08 16:42:24;;;;;;;2.07;1.80;;;;;;;;;;7409017;19;20149;-88
2023/02/08 16:45:07;;;;;;;3.67;2.53;;;;;;;;;;7421745;19;20169;-90
2023/02/08 16:48:04;;;;;;;1.83;1.73;;;;;;;;;;7428435;19;20220;-87
2023/02/08 16:50:43;;;;;;;2.77;2.53;;;;;;;;;;7427450;19;20140;-89
2023/02/08 16:53:11;;;;;;;1.43;1.33;;;;;;;;;;7427286;19;20168;-90
2023/02/08 16:55:37;;;;;;;4.47;2.30;;;;;;;;;;7425571;19;20140;-89
2023/02/08 16:58:04;;;;;;;3.07;2.60;;;;;;;;;;7426962;19;20148;-89
2023/02/08 17:00:33;;;;;;;3.20;2.33;;;;;;;;;;7428852;19;20528;-88
2023/02/08 17:03:00;;;;;;;2.07;1.50;;;;;;;;;;7427297;19;20145;-89
2023/02/08 17:05:34;;;;;;;2.70;2.47;;;;;;;;;;7426179;19;20147;-88
2023/02/08 17:08:03;;;;;;;1.90;1.80;;;;;;;;;;7422751;19;20550;-89
2023/02/08 17:10:31;;;;;;;2.10;1.93;;;;;;;;;;7425597;19;20191;-90
2023/02/08 17:12:59;;;;;;;2.23;2.13;;;;;;;;;;7423349;19;20165;-87
2023/02/08 17:15:46;;;;;;;3.60;2.17;;;;;;;;;;7427746;19;20143;-89
2023/02/08 17:18:13;;;;;;;2.27;1.83;;;;;;;;;;7423397;19;20133;-89
2023/02/08 17:20:39;;;;;;;5.53;2.97;;;;;;;;;;7424609;19;20133;-87
2023/02/08 17:23:06;;;;;;;1.87;1.73;;;;;;;;;;7420996;19;20195;-90
2023/02/08 17:25:33;;;;;;;3.17;2.90;;;;;;;;;;7424516;19;20176;-89
2023/02/08 17:28:05;;;;;;;2.83;2.50;;;;;;;;;;7424565;19;20137;-89
2023/02/08 17:30:37;;;;;;;3.10;2.30;;;;;;;;;;7426827;19;20153;-89
2023/02/08 17:33:08;;;;;;;2.60;2.03;;;;;;;;;;7426164;19;20147;-89
2023/02/08 17:35:37;;;;;;;2.47;2.27;;;;;;;;;;7425121;19;20144;-87
2023/02/08 17:38:04;;;;;;;4.70;3.17;;;;;;;;;;7417266;19;20133;-89
2023/02/08 17:40:33;;;;;;;2.30;2.13;;;;;;;;;;7421270;19;20165;-89
2023/02/08 17:43:00;;;;;;;4.53;2.70;;;;;;;;;;7423747;19;20172;-92
2023/02/08 17:45:27;;;;;;;2.00;1.90;;;;;;;;;;7422126;19;20149;-89
2023/02/08 17:47:54;;;;;;;1.67;1.47;;;;;;;;;;7424332;19;20148;-90
2023/02/08 17:50:22;;;;;;;3.00;1.97;;;;;;;;;;7424542;19;20133;-89
2023/02/08 17:52:48;;;;;;;5.10;2.73;;;;;;;;;;7420922;19;20173;-88
2023/02/08 17:55:16;;;;;;;3.43;2.80;;;;;;;;;;7420932;19;20680;-88
2023/02/08 17:57:43;;;;;;;5.27;2.37;;;;;;;;;;7423427;19;20129;-90
2023/02/08 18:00:16;;;;;;;7.30;2.17;;;;;;;;;;7421411;19;20140;-89
2023/02/08 18:02:45;;;;;;;4.10;2.93;;;;;;;;;;7422254;19;20168;-90
2023/02/08 18:05:17;;;;;;;1.87;1.77;;;;;;;;;;7426933;19;20151;-89
2023/02/08 18:07:46;;;;;;;4.00;2.87;;;;;;;;;;7421563;19;20134;-90
2023/02/08 18:10:14;;;;;;;1.90;1.80;;;;;;;;;;7422780;19;20163;-90
2023/02/08 18:12:41;;;;;;;2.20;1.97;;;;;;;;;;7423080;19;20183;-89
2023/02/08 18:15:11;;;;;;;2.83;2.37;;;;;;;;;;7421698;19;20143;-89
2023/02/08 18:17:38;;;;;;;3.87;2.37;;;;;;;;;;7424398;19;20133;-89
2023/02/08 18:20:05;;;;;;;3.53;3.00;;;;;;;;;;7418457;19;20125;-90
2023/02/08 18:22:32;;;;;;;2.50;2.03;;;;;;;;;;7423889;19;20137;-89
2023/02/08 18:24:59;;;;;;;6.27;2.93;;;;;;;;;;7419778;19;20133;-88
2023/02/08 18:27:26;;;;;;;3.77;3.00;;;;;;;;;;7422471;19;20129;-89
2023/02/08 18:29:53;;;;;;;3.00;2.80;;;;;;;;;;7421022;19;20159;-90
2023/02/08 18:32:20;;;;;;;4.27;2.03;;;;;;;;;;7423547;19;20144;-88
2023/02/08 18:34:48;;;;;;;2.50;2.30;;;;;;;;;;7422277;19;20155;-91
2023/02/08 18:37:15;;;;;;;3.80;2.30;;;;;;;;;;7423013;19;20135;-90
2023/02/08 18:39:42;;;;;;;4.07;3.07;;;;;;;;;;7421934;19;20137;-90
2023/02/08 18:42:09;;;;;;;2.70;2.50;;;;;;;;;;7422176;19;20145;-89
2023/02/08 18:44:37;;;;;;;2.10;1.90;;;;;;;;;;7422346;19;20208;-88
2023/02/08 18:47:05;;;;;;;2.47;1.87;;;;;;;;;;7424479;19;20128;-88
2023/02/08 18:49:39;;;;;;;3.60;2.67;;;;;;;;;;7421384;19;20129;-89
2023/02/08 18:52:14;;;;;;;3.77;3.00;;;;;;;;;;7423177;19;20141;-89
2023/02/08 18:54:41;;;;;;;1.80;1.70;;;;;;;;;;7421686;19;20132;-89
2023/02/08 18:57:11;;;;;;;4.27;2.87;;;;;;;;;;7422095;19;20145;-91
2023/02/08 18:59:37;;;;;;;1.90;1.53;;;;;;;;;;7423670;19;20137;-89
2023/02/08 19:02:05;;;;;;;2.50;2.37;;;;;;;;;;7423506;19;20141;-90
2023/02/08 19:04:39;;;;;;;1.73;1.63;;;;;;;;;;7420070;19;20196;-89
2023/02/08 19:07:06;;;;;;;3.80;2.70;;;;;;;;;;7422474;19;20159;-89
2023/02/08 19:09:36;;;;;;;2.63;2.37;;;;;;;;;;7424485;19;20161;-89
2023/02/08 19:12:03;;;;;;;2.93;2.73;;;;;;;;;;7430903;19;20141;-89
2023/02/08 19:14:30;;;;;;;2.63;2.43;;;;;;;;;;7427053;19;20182;-90
2023/02/08 19:16:56;;;;;;;5.40;2.97;;;;;;;;;;7429752;19;20137;-94
2023/02/08 19:19:23;;;;;;;2.63;2.30;;;;;;;;;;7430402;19;20141;-94
2023/02/08 19:21:50;;;;;;;2.43;2.23;;;;;;;;;;7428005;19;20414;-91
2023/02/08 19:24:18;;;;;;;1.97;1.87;;;;;;;;;;7426927;19;20204;-89
2023/02/08 19:26:48;;;;;;;2.57;1.67;;;;;;;;;;7427541;19;20133;-91
2023/02/08 19:29:18;;;;;;;3.17;2.97;;;;;;;;;;7431532;19;20531;-95
2023/02/08 19:31:45;;;;;;;2.30;2.07;;;;;;;;;;7428301;19;20137;-94
2023/02/08 19:34:13;;;;;;;2.53;2.33;;;;;;;;;;7425994;19;20152;-94
2023/02/08 19:36:43;;;;;;;4.83;2.37;;;;;;;;;;7424618;19;20129;-95
2023/02/08 19:39:13;;;;;;;3.33;2.10;;;;;;;;;;7423405;19;20134;-95
2023/02/08 19:41:40;;;;;;;2.67;2.47;;;;;;;;;;7428899;19;20129;-93
2023/02/08 19:44:09;;;;;;;5.93;2.57;;;;;;;;;;7423866;19;20143;-93
2023/02/08 19:46:41;;;;;;;2.47;2.27;;;;;;;;;;7427074;19;20136;-95
2023/02/08 19:49:10;;;;;;;2.57;2.37;;;;;;;;;;7428346;19;20153;-94
2023/02/08 19:51:37;;;;;;;2.10;2.00;;;;;;;;;;7429341;19;20125;-95
2023/02/08 19:54:05;;;;;;;3.80;2.70;;;;;;;;;;7427146;19;20148;-95
2023/02/08 19:56:33;;;;;;;1.67;1.53;;;;;;;;;;7428942;19;20125;-94
2023/02/08 19:59:02;;;;;;;2.60;1.87;;;;;;;;;;7427809;19;20185;-95
2023/02/08 20:01:34;;;;;;;3.83;1.77;;;;;;;;;;7428945;19;20136;-94
2023/02/08 20:04:02;;;;;;;2.83;1.60;;;;;;;;;;7426954;19;20133;-93
2023/02/08 20:06:32;;;;;;;1.97;1.87;;;;;;;;;;7428667;19;20132;-92
2023/02/08 20:09:02;;;;;;;2.17;1.93;;;;;;;;;;7432068;19;20129;-95
2023/02/08 20:11:32;;;;;;;1.60;1.50;;;;;;;;;;7429940;19;20133;-93
2023/02/08 20:13:59;;;;;;;2.43;2.33;;;;;;;;;;7425152;19;20160;-94
2023/02/08 20:16:27;;;;;;;2.43;2.00;;;;;;;;;;7424499;19;20129;-93
2023/02/08 20:18:57;;;;;;;3.23;2.77;;;;;;;;;;7427419;19;20121;-95
2023/02/08 20:21:24;;;;;;;3.30;2.97;;;;;;;;;;7427342;19;20138;-96
2023/02/08 20:23:51;;;;;;;2.27;1.60;;;;;;;;;;7426303;19;20170;-94
2023/02/08 20:26:23;;;;;;;2.77;2.57;;;;;;;;;;7427731;19;20172;-94
2023/02/08 20:28:52;;;;;;;2.33;2.13;;;;;;;;;;7426818;19;20139;-93
2023/02/08 20:31:22;;;;;;;3.27;2.47;;;;;;;;;;7428091;19;20428;-93
2023/02/08 20:33:49;;;;;;;3.20;2.90;;;;;;;;;;7426142;19;20160;-93
2023/02/08 20:36:18;;;;;;;2.63;2.10;;;;;;;;;;7428012;19;20165;-94
2023/02/08 20:38:47;;;;;;;2.07;1.53;;;;;;;;;;7427465;19;20145;-93
2023/02/08 20:41:15;;;;;;;2.80;2.20;;;;;;;;;;7424991;19;20129;-93
2023/02/08 20:43:42;;;;;;;2.53;2.33;;;;;;;;;;7426537;19;20161;-93
2023/02/08 20:46:20;;;;;;;1.30;1.20;;;;;;;;;;7418776;19;20129;-93
2023/02/08 20:48:51;;;;;;;3.37;2.23;;;;;;;;;;7402516;19;20164;-92
2023/02/08 20:51:20;;;;;;;4.80;1.90;;;;;;;;;;7404004;19;20137;-94
2023/02/08 20:53:47;;;;;;;2.70;2.47;;;;;;;;;;7402765;19;20153;-93
2023/02/08 20:56:28;;;;;;;2.57;2.30;;;;;;;;;;7404436;19;20141;-92
2023/02/08 20:58:55;;;;;;;6.93;3.13;;;;;;;;;;7403900;19;20125;-92
2023/02/08 21:01:26;;;;;;;2.90;2.33;;;;;;;;;;7399973;19;20137;-93
2023/02/08 21:03:57;;;;;;;1.47;1.37;;;;;;;;;;7397796;19;20565;-92
2023/02/08 21:06:29;;;;;;;2.50;2.30;;;;;;;;;;7402270;19;20152;-94
2023/02/08 21:08:57;;;;;;;2.73;2.23;;;;;;;;;;7401141;19;20133;-92
2023/02/08 21:11:26;;;;;;;3.23;2.80;;;;;;;;;;7398222;19;20133;-94
2023/02/08 21:13:54;;;;;;;2.97;2.23;;;;;;;;;;7397670;19;20167;-94
2023/02/08 21:16:21;;;;;;;8.40;3.10;;;;;;;;;;7398174;19;20131;-93
2023/02/08 21:18:48;;;;;;;3.00;2.03;;;;;;;;;;7398004;19;20137;-93
2023/02/08 21:21:15;;;;;;;3.67;2.63;;;;;;;;;;7400009;19;20133;-94
2023/02/08 21:23:42;;;;;;;3.33;2.73;;;;;;;;;;7398628;19;20560;-91
2023/02/08 21:26:13;;;;;;;2.80;2.60;;;;;;;;;;7398319;19;20133;-91
2023/02/08 21:28:41;;;;;;;4.73;2.73;;;;;;;;;;7396467;19;20140;-90
2023/02/08 21:31:14;;;;;;;2.33;2.13;;;;;;;;;;7403651;19;20113;-94
2023/02/08 21:33:42;;;;;;;2.20;2.03;;;;;;;;;;7401270;19;20165;-92
2023/02/08 21:36:13;;;;;;;3.10;2.13;;;;;;;;;;7419055;19;20137;-92
2023/02/08 21:38:39;;;;;;;2.50;2.20;;;;;;;;;;7396821;19;20129;-93